createdAt,value
2022-08-28T04:15:31.012Z,23.93
2022-08-28T04:26:01.030Z,20.10
2022-08-28T04:47:39.386Z,15.30
2022-08-28T04:57:41.518Z,20.88
2022-08-28T05:07:44.945Z,22.17
2022-08-28T05:18:22.695Z,20.35
2022-08-28T05:28:33.824Z,17.17
2022-08-28T05:38:40.139Z,17.10
2022-08-28T05:48:43.178Z,30.30
2022-08-28T05:59:27.756Z,30.73
2022-08-28T06:21:03.781Z,21.58
2022-08-28T06:31:23.229Z,26.38
2022-08-28T06:41:29.299Z,22.23
2022-08-28T06:51:34.760Z,24.70
2022-08-28T07:01:37.927Z,21.17
2022-08-28T07:11:40.632Z,26.73
2022-08-28T07:21:45.436Z,16.83
2022-08-28T07:31:51.644Z,18.17
2022-08-28T07:41:53.642Z,16.33
2022-08-28T07:51:55.478Z,17.92
2022-08-28T08:01:57.796Z,22.08
2022-08-28T08:12:00.384Z,22.63
2022-08-28T08:22:03.097Z,23.23
2022-08-28T08:32:26.234Z,23.73
2022-08-28T09:17:09.145Z,21.90
2022-08-28T09:27:29.593Z,23.02
2022-08-28T09:37:43.044Z,18.80
2022-08-28T09:47:58.146Z,19.90
2022-08-28T09:58:00.841Z,19.63
2022-08-28T10:08:40.151Z,17.85
2022-08-28T10:19:05.049Z,22.02
2022-08-28T10:29:30.048Z,18.02
2022-08-28T10:40:00.019Z,15.43
2022-08-28T10:50:10.584Z,16.05
2022-08-28T11:00:18.175Z,13.73
2022-08-28T11:10:23.344Z,16.98
2022-08-28T11:20:28.924Z,13.02
2022-08-28T11:30:34.659Z,14.68
2022-08-28T11:41:09.577Z,11.77
2022-08-28T11:51:17.517Z,14.63
2022-08-28T12:01:54.438Z,12.13
2022-08-28T12:12:20.627Z,14.98
2022-08-28T12:22:28.358Z,12.27
2022-08-28T12:55:05.942Z,10.43
2022-08-28T13:16:47.352Z,10.32
2022-08-28T14:22:10.026Z,4.53
2022-08-28T14:32:17.253Z,5.78
2022-08-28T14:42:26.597Z,5.45
2022-08-28T14:52:48.230Z,4.95
2022-08-28T15:03:17.774Z,6.78
2022-08-28T15:13:19.853Z,5.43
2022-08-28T15:23:36.797Z,6.03
2022-08-28T15:33:47.887Z,5.93
2022-08-28T15:43:53.838Z,5.53
2022-08-28T15:53:58.365Z,6.20
2022-08-28T16:04:36.036Z,6.95
2022-08-28T16:14:41.424Z,7.30
2022-08-28T16:35:12.118Z,7.70
2022-08-28T16:45:15.025Z,9.05
2022-08-28T16:55:20.120Z,7.40
2022-08-28T17:05:22.679Z,8.82
2022-08-28T17:39:21.077Z,6.18
2022-08-28T17:49:29.711Z,5.97
2022-08-28T17:59:45.716Z,5.32
2022-08-28T18:20:22.122Z,7.57
2022-08-28T19:47:06.249Z,7.30
